createdAt,value
2022-09-29T00:01:09.434Z,14.73
2022-09-29T00:03:37.301Z,14.82
2022-09-29T00:06:12.137Z,19.55
2022-09-29T00:08:39.385Z,14.63
2022-09-29T00:11:17.929Z,18.20
2022-09-29T00:13:47.198Z,16.48
2022-09-29T00:16:15.458Z,23.60
2022-09-29T00:18:42.989Z,24.52
2022-09-29T00:21:21.303Z,24.55
2022-09-29T00:23:50.472Z,22.52
2022-09-29T00:26:24.922Z,17.23
2022-09-29T00:28:56.895Z,19.60
2022-09-29T00:31:28.883Z,24.67
2022-09-29T00:33:57.109Z,18.23
2022-09-29T00:36:25.331Z,21.92
2022-09-29T00:38:53.384Z,19.73
2022-09-29T00:41:29.144Z,26.10
2022-09-29T00:44:14.881Z,21.65
2022-09-29T00:46:48.608Z,23.67
2022-09-29T00:49:27.794Z,19.42
2022-09-29T00:52:27.344Z,18.98
2022-09-29T00:55:07.912Z,18.35
2022-09-29T00:58:16.747Z,19.15
2022-09-29T01:00:44.421Z,19.15
2022-09-29T01:03:17.976Z,18.48
2022-09-29T01:05:52.229Z,19.02
2022-09-29T01:08:53.209Z,21.67
2022-09-29T01:11:22.509Z,20.25
2022-09-29T01:13:51.069Z,17.55
2022-09-29T01:16:18.495Z,19.80
2022-09-29T01:18:47.647Z,23.45
2022-09-29T01:21:50.718Z,18.67
2022-09-29T01:24:52.745Z,29.73
2022-09-29T01:27:51.707Z,27.92
2022-09-29T01:30:54.088Z,22.27
2022-09-29T01:34:11.898Z,20.75
2022-09-29T01:37:03.619Z,24.92
2022-09-29T01:39:51.177Z,25.02
2022-09-29T01:42:30.368Z,24.13
2022-09-29T01:45:12.220Z,23.08
2022-09-29T01:47:50.575Z,20.42
2022-09-29T01:50:32.745Z,18.10
2022-09-29T01:53:16.720Z,25.00
2022-09-29T01:55:51.695Z,21.40
2022-09-29T01:58:35.427Z,20.70
2022-09-29T02:01:11.408Z,18.75
2022-09-29T02:03:52.381Z,21.85
2022-09-29T02:06:36.563Z,20.45
2022-09-29T02:09:15.755Z,18.60
2022-09-29T02:11:43.338Z,22.92
2022-09-29T02:14:24.709Z,16.73
2022-09-29T02:17:08.216Z,18.75
2022-09-29T02:19:41.140Z,16.58
2022-09-29T02:22:08.600Z,17.00
2022-09-29T02:24:36.522Z,15.38
2022-09-29T02:27:04.544Z,17.00
2022-09-29T02:29:35.649Z,19.10
2022-09-29T02:32:09.821Z,18.13
2022-09-29T02:34:43.697Z,22.52
2022-09-29T02:37:59.317Z,17.75
2022-09-29T02:40:56.861Z,18.60
2022-09-29T02:44:10.725Z,16.27
2022-09-29T02:47:35.237Z,15.65
2022-09-29T02:50:50.471Z,20.25
2022-09-29T02:53:34.932Z,17.83
2022-09-29T02:56:24.611Z,20.52
2022-09-29T02:59:02.305Z,18.27
2022-09-29T03:01:34.996Z,18.27
2022-09-29T03:04:04.691Z,16.92
2022-09-29T03:06:32.529Z,19.08
2022-09-29T03:08:59.670Z,22.30
2022-09-29T03:11:26.912Z,19.27
2022-09-29T03:13:54.206Z,20.15
2022-09-29T03:16:21.904Z,18.95
2022-09-29T03:18:49.188Z,21.48
2022-09-29T03:21:16.495Z,21.33
2022-09-29T03:23:43.746Z,20.33
2022-09-29T03:26:11.083Z,25.92
2022-09-29T03:28:38.485Z,23.30
2022-09-29T03:31:10.918Z,21.80
2022-09-29T03:33:39.732Z,20.13
2022-09-29T03:36:08.869Z,22.40
2022-09-29T03:38:36.279Z,23.52
2022-09-29T03:41:04.493Z,23.92
2022-09-29T03:43:31.925Z,29.35
2022-09-29T03:45:59.380Z,29.30
2022-09-29T03:48:31.106Z,30.60
2022-09-29T03:50:58.659Z,33.20
2022-09-29T03:53:25.778Z,44.58
2022-09-29T03:55:53.082Z,34.28
2022-09-29T03:58:20.407Z,25.42
2022-09-29T04:00:50.106Z,29.15
2022-09-29T04:03:17.676Z,27.05
2022-09-29T04:05:48.938Z,24.65
2022-09-29T04:08:16.799Z,23.65
2022-09-29T04:10:47.790Z,20.17
2022-09-29T04:13:19.835Z,22.30
2022-09-29T04:15:49.593Z,22.92
2022-09-29T04:18:17.219Z,25.70
2022-09-29T04:20:44.379Z,23.30
2022-09-29T04:23:12.733Z,26.40
2022-09-29T04:25:39.981Z,32.22
2022-09-29T04:28:07.186Z,23.38
2022-09-29T04:30:34.396Z,24.23
2022-09-29T04:33:01.718Z,21.30
2022-09-29T04:35:30.129Z,26.20
2022-09-29T04:38:00.135Z,22.65
2022-09-29T04:40:28.477Z,17.30
2022-09-29T04:42:55.768Z,25.92
2022-09-29T04:45:22.998Z,31.88
2022-09-29T04:47:50.279Z,28.60
2022-09-29T04:50:17.817Z,28.20
2022-09-29T04:52:45.798Z,31.60
2022-09-29T04:55:13.099Z,30.30
2022-09-29T04:57:43.403Z,31.23
2022-09-29T05:00:12.949Z,26.58
2022-09-29T05:02:40.286Z,30.17
2022-09-29T05:05:10.253Z,27.63
2022-09-29T05:07:40.332Z,21.63
2022-09-29T05:10:09.676Z,20.77
2022-09-29T05:12:37.299Z,25.27
2022-09-29T05:15:06.249Z,23.50
2022-09-29T05:17:34.165Z,23.13
2022-09-29T05:20:01.743Z,21.13
2022-09-29T05:22:30.068Z,18.15
2022-09-29T05:24:57.370Z,19.10
2022-09-29T05:27:24.616Z,16.10
2022-09-29T05:29:52.916Z,17.75
2022-09-29T05:32:20.097Z,21.13
2022-09-29T05:34:47.451Z,19.15
2022-09-29T05:37:15.738Z,20.63
2022-09-29T05:39:44.844Z,22.05
2022-09-29T05:42:12.529Z,18.13
2022-09-29T05:44:39.887Z,22.27
2022-09-29T05:47:07.184Z,15.07
2022-09-29T05:49:36.473Z,19.52
2022-09-29T05:52:03.768Z,17.80
2022-09-29T05:54:31.405Z,17.88
2022-09-29T05:56:58.894Z,18.85
2022-09-29T05:59:26.265Z,14.07
2022-09-29T06:01:53.602Z,12.35
2022-09-29T06:04:20.937Z,11.75
2022-09-29T06:06:48.383Z,14.32
2022-09-29T06:09:15.907Z,16.98
2022-09-29T06:11:43.193Z,14.10
2022-09-29T06:14:10.435Z,18.05
2022-09-29T06:16:38.226Z,10.50
2022-09-29T06:19:05.891Z,11.93
2022-09-29T06:21:35.224Z,13.43
2022-09-29T06:24:02.931Z,10.70
2022-09-29T06:26:31.115Z,15.10
2022-09-29T06:28:58.685Z,10.82
2022-09-29T06:31:30.465Z,17.77
2022-09-29T06:34:04.461Z,17.15
2022-09-29T06:37:03.191Z,12.02
2022-09-29T06:39:30.831Z,18.42
2022-09-29T06:41:59.670Z,14.02
2022-09-29T06:44:30.024Z,13.52
2022-09-29T06:46:58.514Z,19.23
2022-09-29T06:49:26.596Z,15.20
2022-09-29T06:51:54.890Z,19.00
2022-09-29T06:54:25.088Z,20.30
2022-09-29T06:56:55.141Z,19.85
2022-09-29T06:59:22.813Z,21.30
2022-09-29T07:01:51.011Z,21.30
2022-09-29T07:04:21.722Z,17.42
2022-09-29T07:06:50.006Z,19.38
2022-09-29T07:09:18.302Z,17.25
2022-09-29T07:11:51.183Z,20.52
2022-09-29T07:14:25.620Z,22.20
2022-09-29T07:16:53.831Z,24.52
2022-09-29T07:19:22.427Z,20.20
2022-09-29T07:21:49.840Z,18.42
2022-09-29T07:24:17.557Z,19.20
2022-09-29T07:26:44.823Z,16.38
2022-09-29T07:29:15.494Z,16.77
2022-09-29T07:31:52.066Z,19.83
2022-09-29T07:34:21.756Z,21.42
2022-09-29T07:36:51.085Z,19.88
2022-09-29T07:39:21.738Z,23.30
2022-09-29T07:41:49.638Z,23.48
2022-09-29T07:44:16.861Z,21.30
2022-09-29T07:46:44.217Z,18.80
2022-09-29T07:49:11.581Z,24.42
2022-09-29T07:51:40.035Z,24.65
2022-09-29T07:54:07.505Z,23.35
2022-09-29T07:56:35.383Z,21.38
2022-09-29T07:59:03.411Z,23.30
2022-09-29T08:01:32.011Z,22.13
2022-09-29T08:03:59.711Z,20.70
2022-09-29T08:06:28.608Z,24.20
2022-09-29T08:09:04.110Z,23.42
2022-09-29T08:11:36.736Z,24.52
2022-09-29T08:14:04.267Z,22.30
2022-09-29T08:16:32.449Z,24.48
2022-09-29T08:19:01.566Z,22.75
2022-09-29T08:21:31.906Z,19.55
2022-09-29T08:24:02.440Z,20.05
2022-09-29T08:26:41.802Z,23.45
2022-09-29T08:29:16.888Z,22.92
2022-09-29T08:31:46.040Z,24.08
2022-09-29T08:34:14.081Z,18.48
2022-09-29T08:36:42.000Z,20.80
2022-09-29T08:39:11.963Z,24.83
2022-09-29T08:42:14.823Z,20.60
2022-09-29T08:45:04.320Z,18.05
2022-09-29T08:47:47.500Z,20.25
2022-09-29T08:50:51.884Z,22.13
2022-09-29T08:53:28.186Z,23.58
2022-09-29T08:56:14.256Z,16.83
2022-09-29T08:58:42.279Z,22.27
2022-09-29T09:02:04.653Z,21.25
2022-09-29T09:04:56.292Z,20.85
2022-09-29T09:08:05.221Z,20.85
2022-09-29T09:11:25.407Z,17.45
2022-09-29T09:14:48.514Z,20.52
2022-09-29T09:18:06.259Z,26.33
2022-09-29T09:21:08.355Z,19.33
2022-09-29T09:23:55.477Z,17.58
2022-09-29T09:26:48.674Z,22.45
2022-09-29T09:29:37.685Z,16.55
2022-09-29T09:32:21.995Z,17.00
2022-09-29T09:35:23.524Z,20.50
2022-09-29T09:37:54.341Z,21.55
2022-09-29T09:40:29.664Z,17.20
2022-09-29T09:43:12.866Z,19.73
2022-09-29T09:45:52.440Z,19.02
2022-09-29T09:48:35.629Z,19.65
2022-09-29T09:51:40.454Z,23.70
2022-09-29T09:54:37.055Z,19.58
2022-09-29T09:57:49.059Z,22.42
2022-09-29T10:00:30.577Z,22.40
2022-09-29T10:03:05.303Z,26.98
2022-09-29T10:05:46.533Z,21.10
2022-09-29T10:08:29.240Z,19.52
2022-09-29T10:11:00.036Z,18.70
2022-09-29T10:13:31.041Z,21.73
2022-09-29T10:16:17.842Z,25.08
2022-09-29T10:18:54.297Z,22.02
2022-09-29T10:21:42.719Z,22.08
2022-09-29T10:24:27.989Z,28.10
2022-09-29T10:27:00.248Z,22.30
2022-09-29T10:29:49.428Z,21.33
2022-09-29T10:32:38.864Z,19.67
2022-09-29T10:35:20.227Z,23.48
2022-09-29T10:38:09.924Z,23.17
2022-09-29T10:40:37.365Z,23.83
2022-09-29T10:43:32.577Z,23.05
2022-09-29T10:46:00.397Z,25.08
2022-09-29T10:48:28.254Z,32.78
2022-09-29T10:51:05.422Z,28.83
2022-09-29T10:53:43.627Z,34.88
2022-09-29T10:56:25.076Z,33.78
2022-09-29T10:59:03.167Z,36.97
2022-09-29T11:01:45.610Z,37.75
2022-09-29T11:04:42.298Z,29.75
2022-09-29T11:07:12.686Z,37.03
2022-09-29T11:09:44.771Z,43.47
2022-09-29T11:12:34.997Z,42.95
2022-09-29T11:15:02.934Z,45.22
2022-09-29T11:17:38.423Z,39.10
2022-09-29T11:20:15.006Z,39.47
2022-09-29T11:23:22.915Z,31.23
2022-09-29T11:26:30.224Z,28.95
2022-09-29T11:29:29.117Z,30.55
2022-09-29T11:32:27.520Z,26.30
2022-09-29T11:35:24.741Z,23.65
2022-09-29T11:38:30.619Z,22.77
2022-09-29T11:41:18.619Z,14.60
2022-09-29T11:44:00.483Z,12.00
2022-09-29T11:47:20.846Z,8.80
2022-09-29T11:50:21.695Z,8.85
2022-09-29T11:53:23.267Z,13.55
2022-09-29T11:56:12.627Z,17.35
2022-09-29T11:58:56.227Z,15.57
2022-09-29T12:01:59.876Z,15.27
2022-09-29T12:04:53.971Z,15.82
2022-09-29T12:07:46.158Z,16.77
2022-09-29T12:11:23.859Z,14.73
2022-09-29T12:14:21.958Z,17.58
2022-09-29T12:17:03.578Z,16.85
2022-09-29T12:19:38.278Z,13.75
2022-09-29T12:22:14.143Z,13.05
2022-09-29T12:24:57.277Z,13.27
2022-09-29T12:27:54.407Z,13.35
2022-09-29T12:30:30.889Z,11.73
2022-09-29T12:33:18.516Z,11.68
2022-09-29T12:36:46.305Z,13.02
2022-09-29T12:39:18.414Z,13.85
2022-09-29T12:42:15.893Z,13.18
2022-09-29T12:45:41.185Z,16.20
2022-09-29T12:49:13.057Z,14.07
2022-09-29T12:51:51.220Z,15.10
2022-09-29T12:54:48.674Z,16.88
2022-09-29T12:57:42.343Z,15.10
2022-09-29T13:00:16.215Z,20.25
2022-09-29T13:03:20.703Z,13.02
2022-09-29T13:06:27.193Z,16.08
2022-09-29T13:09:33.815Z,14.82
2022-09-29T13:12:26.245Z,14.88
2022-09-29T13:15:20.877Z,15.15
2022-09-29T13:18:21.363Z,14.07
2022-09-29T13:21:09.506Z,12.02
2022-09-29T13:24:47.617Z,11.90
2022-09-29T13:27:39.272Z,12.25
2022-09-29T13:30:17.539Z,10.00
2022-09-29T13:33:21.507Z,12.68
2022-09-29T13:35:50.802Z,11.38
2022-09-29T13:38:30.609Z,12.40
2022-09-29T13:41:40.270Z,13.73
2022-09-29T13:44:26.173Z,14.52
2022-09-29T13:46:56.329Z,11.50
2022-09-29T13:49:29.085Z,13.70
2022-09-29T13:52:01.817Z,11.50
2022-09-29T13:54:37.851Z,10.38
2022-09-29T13:57:17.065Z,11.02
2022-09-29T13:59:54.315Z,12.80
2022-09-29T14:03:01.077Z,15.48
2022-09-29T14:05:37.128Z,11.93
2022-09-29T14:08:19.899Z,12.68
2022-09-29T14:11:06.395Z,11.50
2022-09-29T14:14:03.101Z,10.90
2022-09-29T14:16:42.386Z,13.25
2022-09-29T14:20:01.673Z,9.35
2022-09-29T14:22:39.074Z,10.38
2022-09-29T14:25:15.134Z,10.93
2022-09-29T14:28:01.607Z,10.00
2022-09-29T14:30:32.543Z,12.90
2022-09-29T14:33:16.733Z,10.75
2022-09-29T14:36:06.812Z,7.82
2022-09-29T14:39:21.621Z,9.15
2022-09-29T14:41:48.900Z,10.05
2022-09-29T14:44:54.463Z,11.27
2022-09-29T14:48:19.178Z,9.57
2022-09-29T14:51:36.830Z,8.70
2022-09-29T14:55:00.353Z,8.70
2022-09-29T14:58:21.769Z,9.00
2022-09-29T15:01:22.969Z,8.55
2022-09-29T15:03:53.643Z,8.73
2022-09-29T15:06:27.562Z,11.15
2022-09-29T15:09:02.764Z,10.00
2022-09-29T15:11:46.170Z,10.77
2022-09-29T15:14:36.004Z,7.85
2022-09-29T15:17:21.551Z,7.60
2022-09-29T15:20:01.515Z,11.30
2022-09-29T15:23:23.435Z,11.13
2022-09-29T15:28:38.944Z,10.15
2022-09-29T15:31:17.129Z,11.65
2022-09-29T15:33:46.597Z,11.40
2022-09-29T15:36:24.508Z,11.95
2022-09-29T15:39:06.097Z,11.35
2022-09-29T15:41:35.580Z,9.48
2022-09-29T15:44:22.273Z,9.52
2022-09-29T15:46:58.369Z,10.68
2022-09-29T15:49:30.400Z,9.02
2022-09-29T15:52:06.508Z,12.35
2022-09-29T15:54:40.602Z,11.38
2022-09-29T15:57:53.408Z,10.32
2022-09-29T16:00:24.432Z,10.80
2022-09-29T16:03:07.050Z,12.60
2022-09-29T16:05:42.944Z,10.90
2022-09-29T16:08:23.140Z,14.07
2022-09-29T16:10:59.054Z,11.68
2022-09-29T16:13:36.992Z,12.00
2022-09-29T16:16:12.650Z,8.93
2022-09-29T16:18:47.012Z,13.45
2022-09-29T16:21:20.192Z,9.85
2022-09-29T16:24:10.769Z,14.90
2022-09-29T16:26:46.993Z,11.13
2022-09-29T16:29:36.666Z,10.75
2022-09-29T16:32:32.871Z,14.38
2022-09-29T16:38:41.032Z,14.00
2022-09-29T16:41:37.734Z,13.80
2022-09-29T16:44:12.530Z,14.02
2022-09-29T16:47:09.748Z,9.68
2022-09-29T16:49:54.088Z,16.30
2022-09-29T16:52:28.728Z,9.27
2022-09-29T16:55:28.259Z,6.40
2022-09-29T16:58:15.808Z,5.82
2022-09-29T17:00:47.111Z,6.15
2022-09-29T17:03:14.939Z,6.05
2022-09-29T17:05:47.834Z,8.95
2022-09-29T17:08:27.792Z,8.52
2022-09-29T17:10:57.945Z,10.73
2022-09-29T17:13:31.232Z,6.78
2022-09-29T17:15:59.184Z,3.35
2022-09-29T17:18:28.946Z,4.85
2022-09-29T17:20:56.329Z,3.75
2022-09-29T17:23:24.059Z,4.45
2022-09-29T17:25:51.704Z,5.57
2022-09-29T17:28:26.944Z,4.93
2022-09-29T17:30:55.613Z,5.35
2022-09-29T17:33:23.723Z,5.32
2022-09-29T17:35:55.922Z,4.47
2022-09-29T17:38:24.305Z,3.80
2022-09-29T17:41:06.943Z,4.53
2022-09-29T17:43:34.715Z,7.15
2022-09-29T17:46:03.021Z,7.88
2022-09-29T17:48:32.837Z,7.00
2022-09-29T17:51:00.368Z,5.03
2022-09-29T17:53:27.866Z,8.93
2022-09-29T17:55:57.924Z,4.97
2022-09-29T17:58:25.538Z,5.22
2022-09-29T18:00:57.276Z,8.63
2022-09-29T18:03:25.096Z,6.38
2022-09-29T18:05:58.262Z,7.18
2022-09-29T18:08:29.233Z,6.32
2022-09-29T18:11:01.142Z,8.48
2022-09-29T18:13:34.002Z,9.55
2022-09-29T18:16:02.196Z,6.63
2022-09-29T18:18:29.861Z,17.50
2022-09-29T18:20:57.454Z,11.50
2022-09-29T18:23:24.943Z,8.73
2022-09-29T18:25:57.120Z,10.38
2022-09-29T18:28:25.206Z,11.35
2022-09-29T18:31:17.250Z,15.30
2022-09-29T18:33:44.982Z,11.82
2022-09-29T18:36:12.292Z,9.63
2022-09-29T18:38:39.855Z,10.48
2022-09-29T18:41:16.424Z,9.60
2022-09-29T18:43:44.068Z,12.90
2022-09-29T18:46:11.870Z,13.80
2022-09-29T18:48:39.424Z,13.57
2022-09-29T18:51:07.124Z,11.85
2022-09-29T18:53:35.527Z,13.65
2022-09-29T18:56:05.064Z,15.45
2022-09-29T18:58:33.387Z,13.02
2022-09-29T19:01:02.454Z,14.85
2022-09-29T19:03:30.076Z,15.85
2022-09-29T19:05:57.938Z,15.52
2022-09-29T19:08:25.344Z,11.65
2022-09-29T19:11:00.789Z,14.60
2022-09-29T19:13:31.185Z,18.02
2022-09-29T19:15:59.481Z,16.42
2022-09-29T19:18:27.191Z,19.95
2022-09-29T19:20:59.678Z,17.20
2022-09-29T19:23:27.949Z,16.75
2022-09-29T19:25:58.619Z,16.05
2022-09-29T19:28:27.415Z,15.63
2022-09-29T19:31:04.704Z,14.68
2022-09-29T19:33:32.467Z,11.75
2022-09-29T19:36:05.735Z,16.17
2022-09-29T19:38:35.382Z,13.40
2022-09-29T19:41:04.402Z,15.32
2022-09-29T19:43:32.577Z,12.65
2022-09-29T19:46:09.673Z,12.60
2022-09-29T19:48:37.374Z,14.90
2022-09-29T19:51:24.420Z,9.70
2022-09-29T19:54:10.410Z,11.27
2022-09-29T19:56:52.083Z,11.70
2022-09-29T19:59:32.064Z,11.23
2022-09-29T20:02:02.747Z,9.75
2022-09-29T20:04:35.148Z,13.75
2022-09-29T20:07:04.229Z,10.93
2022-09-29T20:09:33.177Z,11.93
2022-09-29T20:12:00.868Z,10.75
2022-09-29T20:14:28.719Z,15.90
2022-09-29T20:16:57.884Z,12.45
2022-09-29T20:19:26.803Z,11.82
2022-09-29T20:21:57.190Z,12.45
2022-09-29T20:24:25.164Z,12.30
2022-09-29T20:26:57.948Z,12.43
2022-09-29T20:29:27.063Z,16.10
2022-09-29T20:31:54.456Z,13.60
2022-09-29T20:34:22.571Z,16.40
2022-09-29T20:36:54.494Z,14.38
2022-09-29T20:39:24.543Z,13.07
2022-09-29T20:41:56.251Z,11.77
2022-09-29T20:44:26.029Z,13.10
2022-09-29T20:46:57.910Z,14.52
2022-09-29T20:49:26.970Z,14.90
2022-09-29T20:51:54.923Z,11.13
2022-09-29T20:54:22.653Z,12.25
2022-09-29T20:56:50.418Z,12.20
2022-09-29T20:59:22.751Z,9.95
2022-09-29T21:01:52.387Z,11.80
2022-09-29T21:04:25.469Z,9.93
2022-09-29T21:07:05.697Z,12.15
2022-09-29T21:09:33.189Z,12.82
2022-09-29T21:12:02.467Z,13.07
2022-09-29T21:14:29.944Z,12.15
2022-09-29T21:16:58.338Z,13.30
2022-09-29T21:19:26.656Z,11.30
2022-09-29T21:21:57.182Z,15.45
2022-09-29T21:24:24.987Z,13.27
2022-09-29T21:26:52.331Z,10.52
2022-09-29T21:29:20.004Z,13.43
2022-09-29T21:31:47.503Z,12.70
2022-09-29T21:34:15.632Z,10.90
2022-09-29T21:36:42.974Z,10.75
2022-09-29T21:39:11.349Z,14.25
2022-09-29T21:41:41.518Z,10.52
2022-09-29T21:44:24.772Z,10.07
2022-09-29T21:46:57.725Z,13.30
2022-09-29T21:49:25.529Z,12.18
2022-09-29T21:52:01.831Z,13.80
2022-09-29T21:54:30.356Z,11.18
2022-09-29T21:57:01.318Z,10.65
2022-09-29T21:59:29.386Z,11.02
2022-09-29T22:01:56.820Z,15.80
2022-09-29T22:04:24.367Z,12.95
2022-09-29T22:06:59.167Z,12.27
2022-09-29T22:09:28.794Z,12.20
2022-09-29T22:11:56.438Z,12.52
2022-09-29T22:14:26.457Z,13.35
2022-09-29T22:16:54.221Z,14.45
2022-09-29T22:19:26.287Z,15.73
2022-09-29T22:21:54.525Z,15.23
2022-09-29T22:24:23.732Z,15.00
2022-09-29T22:26:51.326Z,16.85
2022-09-29T22:29:19.583Z,14.68
2022-09-29T22:31:47.473Z,14.75
2022-09-29T22:34:14.987Z,13.80
2022-09-29T22:36:42.322Z,15.50
2022-09-29T22:39:10.983Z,17.98
2022-09-29T22:41:40.957Z,13.13
2022-09-29T22:44:08.751Z,14.40
2022-09-29T22:46:37.310Z,13.95
2022-09-29T22:49:05.281Z,13.65
2022-09-29T22:51:33.197Z,14.57
2022-09-29T22:54:01.636Z,16.73
2022-09-29T22:56:29.845Z,15.68
2022-09-29T22:59:05.281Z,13.63
2022-09-29T23:01:34.490Z,13.93
2022-09-29T23:04:08.887Z,14.98
2022-09-29T23:06:36.346Z,14.80
2022-09-29T23:09:03.777Z,14.38
2022-09-29T23:11:32.772Z,13.68
2022-09-29T23:14:09.187Z,14.43
2022-09-29T23:16:41.551Z,12.70
2022-09-29T23:19:13.982Z,13.60
2022-09-29T23:21:49.884Z,11.68
2022-09-29T23:24:20.514Z,11.13
2022-09-29T23:26:55.386Z,11.90
2022-09-29T23:29:25.909Z,10.45
2022-09-29T23:31:53.281Z,10.55
2022-09-29T23:34:23.749Z,11.23
2022-09-29T23:36:51.917Z,12.20
2022-09-29T23:39:19.689Z,12.70
2022-09-29T23:41:51.785Z,15.55
2022-09-29T23:44:27.432Z,15.48
2022-09-29T23:46:57.151Z,14.30
2022-09-29T23:49:34.636Z,15.98
2022-09-29T23:52:05.554Z,17.77
2022-09-29T23:54:33.356Z,21.13
2022-09-29T23:57:00.932Z,19.35
2022-09-29T23:59:28.382Z,19.08
